Time;durP1;ratioP1;P1;durP2;ratioP2;P2;SDS_P1;SDS_P2;PMS_P1;PMS_P2;Temp;Humidity;BMP_temperature;BMP_pressure;BME280_temperature;BME280_humidity;BME280_pressure;Samples;Min_cycle;Max_cycle;Signal;HPM_P1;HPM_P2
2022/06/26 00:01:33;;;;;;;31.05;27.73;;;;;;;17.72;100.00;101372.06;5027792;28;20035;-74
2022/06/26 00:03:59;;;;;;;33.97;26.85;;;;;;;17.73;100.00;101368.16;5044765;28;20036;-74
2022/06/26 00:06:24;;;;;;;33.33;27.48;;;;;;;17.60;100.00;101367.94;5046112;28;20027;-75
2022/06/26 00:08:50;;;;;;;31.35;26.83;;;;;;;17.55;100.00;101370.84;5045259;28;20501;-75
2022/06/26 00:11:16;;;;;;;31.38;27.58;;;;;;;17.48;100.00;101380.72;5062798;28;20031;-75
2022/06/26 00:13:41;;;;;;;33.28;28.95;;;;;;;17.33;100.00;101379.16;5063994;28;20124;-75
2022/06/26 00:16:08;;;;;;;33.00;28.65;;;;;;;17.34;100.00;101380.81;5042379;28;20028;-74
2022/06/26 00:18:33;;;;;;;36.97;29.83;;;;;;;17.22;100.00;101376.63;5063950;28;20046;-74
2022/06/26 00:20:59;;;;;;;36.42;29.13;;;;;;;17.17;100.00;101382.31;5063867;28;20482;-74
2022/06/26 00:23:24;;;;;;;35.92;29.35;;;;;;;17.24;100.00;101377.13;5065148;28;20028;-75
2022/06/26 00:25:50;;;;;;;36.00;29.55;;;;;;;17.23;100.00;101386.59;5062756;28;20031;-75
2022/06/26 00:28:15;;;;;;;33.78;29.15;;;;;;;17.15;100.00;101387.34;5045273;28;20440;-74
2022/06/26 00:30:41;;;;;;;35.53;29.25;;;;;;;17.19;100.00;101385.59;5059272;28;20070;-74
2022/06/26 00:33:06;;;;;;;33.80;29.13;;;;;;;17.17;100.00;101398.94;5061394;28;20442;-73
2022/06/26 00:35:31;;;;;;;38.08;28.75;;;;;;;17.11;100.00;101400.19;5062522;28;20033;-74
2022/06/26 00:37:57;;;;;;;31.20;26.50;;;;;;;17.01;100.00;101395.69;5044857;28;20527;-75
2022/06/26 00:40:22;;;;;;;32.72;27.58;;;;;;;16.95;100.00;101402.47;5061498;28;20032;-74
2022/06/26 00:42:49;;;;;;;39.60;28.52;;;;;;;16.97;100.00;101405.78;5044815;28;20441;-74
2022/06/26 00:45:15;;;;;;;36.78;26.60;;;;;;;16.98;100.00;101399.09;5043912;28;20111;-73
2022/06/26 00:47:41;;;;;;;30.63;25.75;;;;;;;16.81;100.00;101399.72;5061029;28;20039;-74
2022/06/26 00:50:08;;;;;;;30.33;25.60;;;;;;;16.77;100.00;101393.16;5044954;28;20040;-74
2022/06/26 00:52:35;;;;;;;34.20;25.63;;;;;;;16.78;100.00;101385.69;5063652;28;20035;-74
2022/06/26 00:55:00;;;;;;;30.67;23.25;;;;;;;16.76;100.00;101388.75;5074065;28;20036;-74
2022/06/26 00:57:26;;;;;;;28.73;24.02;;;;;;;16.67;100.00;101385.88;5083574;28;20482;-74
2022/06/26 00:59:52;;;;;;;31.27;23.73;;;;;;;16.69;100.00;101388.34;5064017;28;20028;-74
2022/06/26 01:02:18;;;;;;;32.25;24.10;;;;;;;16.69;100.00;101380.03;5064845;28;20028;-72
2022/06/26 01:04:43;;;;;;;27.85;22.58;;;;;;;16.67;100.00;101377.59;5068246;28;20138;-74
2022/06/26 01:07:10;;;;;;;31.95;25.08;;;;;;;16.78;100.00;101386.50;5049071;28;20131;-74
2022/06/26 01:09:35;;;;;;;27.75;23.10;;;;;;;16.71;100.00;101386.13;5067618;28;20030;-73
2022/06/26 01:12:01;;;;;;;31.83;23.73;;;;;;;16.77;100.00;101384.03;5082715;28;20028;-74
2022/06/26 01:14:26;;;;;;;35.40;25.15;;;;;;;16.74;100.00;101379.94;5081448;28;20020;-73
2022/06/26 01:16:52;;;;;;;30.38;23.45;;;;;;;16.72;100.00;101376.66;5079180;28;20031;-74
2022/06/26 01:19:19;;;;;;;32.15;23.83;;;;;;;16.71;100.00;101386.13;5049574;28;20032;-74
2022/06/26 01:21:45;;;;;;;29.00;24.58;;;;;;;16.78;100.00;101391.22;5066708;28;20032;-74
2022/06/26 01:24:11;;;;;;;35.83;23.95;;;;;;;16.75;100.00;101398.19;5064751;28;20032;-74
2022/06/26 01:26:39;;;;;;;32.97;22.95;;;;;;;16.72;100.00;101396.88;5084885;28;20110;-74
2022/06/26 01:29:05;;;;;;;34.90;26.00;;;;;;;16.70;100.00;101393.56;5079349;28;20027;-73
2022/06/26 01:31:36;;;;;;;33.45;25.23;;;;;;;16.71;100.00;101395.22;5063257;28;20024;-74
2022/06/26 01:34:06;;;;;;;34.78;25.52;;;;;;;16.65;100.00;101395.66;5079985;28;20028;-74
2022/06/26 01:36:32;;;;;;;31.60;24.73;;;;;;;16.66;100.00;101383.44;5081772;28;20442;-74
2022/06/26 01:38:58;;;;;;;30.85;23.88;;;;;;;16.58;100.00;101392.47;5082250;28;20198;-74
2022/06/26 01:41:24;;;;;;;35.15;25.98;;;;;;;16.60;100.00;101395.75;5032252;28;20020;-74
2022/06/26 01:43:49;;;;;;;33.78;25.77;;;;;;;16.58;100.00;101398.00;5082458;28;20039;-74
2022/06/26 01:46:14;;;;;;;28.88;23.90;;;;;;;16.52;100.00;101398.09;5078169;28;20269;-74
2022/06/26 01:48:40;;;;;;;33.85;25.45;;;;;;;16.47;100.00;101401.00;5030635;28;20055;-74
2022/06/26 01:51:06;;;;;;;34.90;25.95;;;;;;;16.43;100.00;101407.44;5063467;28;20027;-74
2022/06/26 01:53:32;;;;;;;34.38;25.50;;;;;;;16.38;100.00;101404.78;5065328;28;20168;-74
2022/06/26 01:55:58;;;;;;;34.35;26.02;;;;;;;16.27;100.00;101401.41;5046467;28;20060;-74
2022/06/26 01:58:24;;;;;;;34.28;26.02;;;;;;;16.19;100.00;101402.94;5065274;28;20111;-75
2022/06/26 02:00:50;;;;;;;35.22;25.45;;;;;;;16.23;100.00;101403.16;5062164;28;20332;-75
2022/06/26 02:03:17;;;;;;;35.53;25.63;;;;;;;16.30;100.00;101392.50;5060671;28;20150;-75
2022/06/26 02:05:42;;;;;;;28.42;24.35;;;;;;;16.26;100.00;101394.22;5049403;28;20376;-73
2022/06/26 02:08:09;;;;;;;33.67;25.40;;;;;;;16.26;100.00;101394.22;5044966;28;20119;-75
2022/06/26 02:13:41;;;;;;;30.60;24.30;;;;;;;16.14;100.00;101400.28;5051633;28;20171;-73
2022/06/26 02:16:17;;;;;;;34.90;25.48;;;;;;;16.01;100.00;101399.13;5079124;28;20046;-75
2022/06/26 02:18:44;;;;;;;27.60;21.70;;;;;;;16.03;100.00;101391.34;5063297;28;20089;-73
2022/06/26 02:21:13;;;;;;;26.33;21.33;;;;;;;16.01;100.00;101395.56;5062856;28;20020;-73
2022/06/26 02:23:39;;;;;;;29.85;21.77;;;;;;;15.95;100.00;101397.59;5064709;28;20366;-73
2022/06/26 02:26:06;;;;;;;31.10;23.67;;;;;;;15.97;100.00;101387.88;5061023;28;20543;-74
2022/06/26 02:28:32;;;;;;;30.20;21.90;;;;;;;15.94;100.00;101395.97;5048121;28;20520;-73
2022/06/26 02:31:00;;;;;;;29.73;22.83;;;;;;;15.89;100.00;101384.97;5045615;28;20068;-74
2022/06/26 02:33:26;;;;;;;29.58;23.38;;;;;;;15.94;100.00;101388.47;5063410;28;20524;-73
2022/06/26 02:35:54;;;;;;;27.70;21.98;;;;;;;15.89;100.00;101387.75;5083027;28;20480;-73
2022/06/26 02:38:20;;;;;;;31.48;23.02;;;;;;;15.88;100.00;101391.66;5064114;28;20375;-74
2022/06/26 02:40:46;;;;;;;33.38;23.60;;;;;;;15.87;100.00;101392.75;5064561;28;20060;-74
2022/06/26 02:43:12;;;;;;;31.17;22.98;;;;;;;15.74;100.00;101391.56;5046865;28;20032;-74
2022/06/26 02:45:38;;;;;;;31.20;23.80;;;;;;;15.48;100.00;101389.28;5080349;28;20077;-75
2022/06/26 02:48:04;;;;;;;32.50;24.45;;;;;;;15.71;100.00;101381.97;5062079;28;20423;-74
2022/06/26 02:50:29;;;;;;;30.55;23.65;;;;;;;15.77;100.00;101394.59;5047433;28;20024;-74
2022/06/26 02:52:55;;;;;;;28.45;22.33;;;;;;;15.72;100.00;101393.81;5063960;28;20032;-73
2022/06/26 02:55:20;;;;;;;36.13;24.17;;;;;;;15.69;100.00;101392.50;5062131;28;20400;-74
2022/06/26 02:57:46;;;;;;;37.08;24.52;;;;;;;15.70;100.00;101390.56;5046971;28;20214;-74
2022/06/26 03:00:14;;;;;;;29.25;21.50;;;;;;;15.63;100.00;101390.94;5043657;28;20474;-74
2022/06/26 03:02:40;;;;;;;32.72;23.92;;;;;;;15.68;100.00;101388.09;5044888;28;20402;-74
2022/06/26 03:05:08;;;;;;;32.22;22.58;;;;;;;15.67;100.00;101391.16;5080075;28;20115;-73
2022/06/26 03:07:34;;;;;;;32.55;23.10;;;;;;;15.63;100.00;101400.06;5063699;28;20539;-74
2022/06/26 03:09:59;;;;;;;33.92;24.10;;;;;;;15.66;100.00;101398.63;5046522;28;20274;-74
2022/06/26 03:12:25;;;;;;;32.00;23.25;;;;;;;15.62;100.00;101395.63;5079360;28;20210;-74
2022/06/26 03:14:50;;;;;;;31.35;22.67;;;;;;;15.56;100.00;101404.31;5081079;28;20055;-74
2022/06/26 03:17:16;;;;;;;35.05;23.88;;;;;;;15.57;100.00;101405.97;5041598;28;20043;-74
2022/06/26 03:19:42;;;;;;;37.45;24.17;;;;;;;15.56;100.00;101402.41;5047847;28;20332;-74
2022/06/26 03:22:08;;;;;;;34.45;23.77;;;;;;;15.59;100.00;101412.84;5064564;28;20043;-74
2022/06/26 03:24:34;;;;;;;35.80;24.83;;;;;;;15.57;100.00;101417.03;5066837;28;20020;-74
2022/06/26 03:26:59;;;;;;;31.27;23.17;;;;;;;15.57;100.00;101417.84;5050492;28;20027;-74
2022/06/26 03:29:25;;;;;;;33.97;24.48;;;;;;;15.53;100.00;101429.81;5082647;28;20375;-74
2022/06/26 03:31:51;;;;;;;29.45;24.58;;;;;;;15.53;100.00;101429.81;5064202;28;20074;-74
2022/06/26 03:34:16;;;;;;;30.13;21.88;;;;;;;15.50;100.00;101419.38;5067500;28;20028;-74
2022/06/26 03:36:42;;;;;;;35.20;23.60;;;;;;;15.47;100.00;101420.78;5066713;28;20123;-74
2022/06/26 03:39:11;;;;;;;37.63;24.15;;;;;;;15.53;100.00;101421.53;5049912;28;20024;-73
2022/06/26 03:41:38;;;;;;;32.80;23.27;;;;;;;15.51;100.00;101419.06;5067118;28;20065;-74
2022/06/26 03:44:04;;;;;;;32.65;22.48;;;;;;;15.47;100.00;101423.53;5081125;28;20024;-73
2022/06/26 03:46:32;;;;;;;34.92;23.42;;;;;;;15.40;100.00;101418.41;5083621;28;20087;-74
2022/06/26 03:48:58;;;;;;;37.15;24.08;;;;;;;15.46;100.00;101419.13;5067645;28;20028;-74
2022/06/26 03:51:23;;;;;;;29.08;22.05;;;;;;;15.50;100.00;101431.22;5084440;28;20061;-74
2022/06/26 03:53:49;;;;;;;32.05;22.70;;;;;;;15.47;100.00;101433.78;5049852;28;20540;-74
2022/06/26 03:56:14;;;;;;;33.55;22.92;;;;;;;15.46;100.00;101434.88;5084175;28;20397;-74
2022/06/26 03:58:39;;;;;;;34.38;22.33;;;;;;;15.50;100.00;101434.00;5050228;28;20340;-74
2022/06/26 04:01:05;;;;;;;31.48;21.90;;;;;;;15.53;100.00;101435.34;5048713;28;20020;-74
2022/06/26 04:03:30;;;;;;;31.85;21.63;;;;;;;15.48;100.00;101432.63;5047560;28;20027;-74
2022/06/26 04:05:56;;;;;;;29.50;20.77;;;;;;;15.49;100.00;101435.09;5067231;28;20032;-74
2022/06/26 04:08:22;;;;;;;24.15;19.40;;;;;;;15.54;100.00;101429.50;5066087;28;20059;-75
2022/06/26 04:10:47;;;;;;;25.77;19.65;;;;;;;15.55;100.00;101433.09;5067608;28;20153;-74
2022/06/26 04:13:13;;;;;;;33.45;20.63;;;;;;;15.63;100.00;101440.69;5062308;28;20397;-73
2022/06/26 04:15:41;;;;;;;26.30;18.98;;;;;;;15.63;100.00;101435.16;5065297;28;20110;-74
2022/06/26 04:18:08;;;;;;;27.33;19.50;;;;;;;15.70;100.00;101443.88;5083215;28;20089;-74
2022/06/26 04:20:34;;;;;;;31.00;20.20;;;;;;;15.72;100.00;101452.69;5064415;28;20446;-74
2022/06/26 04:23:12;;;;;;;26.15;19.33;;;;;;;15.64;100.00;101453.38;5049884;28;20081;-74
2022/06/26 04:25:38;;;;;;;29.98;19.40;;;;;;;15.79;100.00;101450.41;5066858;28;20454;-73
2022/06/26 04:28:05;;;;;;;32.38;20.38;;;;;;;15.91;100.00;101457.41;5050967;28;20032;-73
2022/06/26 04:30:31;;;;;;;24.48;16.77;;;;;;;15.92;100.00;101464.56;5042513;28;20292;-74
2022/06/26 04:32:56;;;;;;;24.05;17.60;;;;;;;15.94;100.00;101470.63;5046551;28;20032;-73
2022/06/26 04:35:22;;;;;;;26.55;18.33;;;;;;;15.99;100.00;101467.75;5048557;28;20070;-73
2022/06/26 04:37:47;;;;;;;24.48;17.35;;;;;;;15.96;100.00;101477.47;5082960;28;20501;-73
2022/06/26 04:40:19;;;;;;;25.25;16.80;;;;;;;15.90;100.00;101480.63;5065770;28;20032;-73
2022/06/26 04:42:44;;;;;;;24.05;16.73;;;;;;;16.03;100.00;101484.56;5049272;28;20028;-73
2022/06/26 04:45:17;;;;;;;22.80;15.70;;;;;;;16.03;100.00;101479.84;5064048;28;20028;-73
2022/06/26 04:47:42;;;;;;;22.67;15.80;;;;;;;16.05;100.00;101485.88;5063187;28;20020;-73
2022/06/26 04:50:08;;;;;;;23.35;14.80;;;;;;;16.01;100.00;101486.81;5064454;28;20032;-73
2022/06/26 04:52:34;;;;;;;21.95;14.55;;;;;;;16.16;100.00;101492.06;5047111;28;20131;-74
2022/06/26 04:54:59;;;;;;;24.00;14.63;;;;;;;16.32;100.00;101489.84;5065894;28;20051;-73
2022/06/26 04:57:25;;;;;;;23.10;14.48;;;;;;;16.24;100.00;101493.31;5063121;28;20096;-74
2022/06/26 04:59:51;;;;;;;21.85;13.02;;;;;;;16.32;100.00;101496.19;5031010;28;20047;-74
2022/06/26 05:02:17;;;;;;;18.85;12.68;;;;;;;16.28;100.00;101503.47;5060849;28;20016;-74
2022/06/26 05:04:42;;;;;;;18.17;13.55;;;;;;;15.92;100.00;101508.81;5082946;28;20367;-73
2022/06/26 05:07:08;;;;;;;18.55;12.98;;;;;;;16.26;100.00;101502.13;5082936;28;20388;-73
2022/06/26 05:09:33;;;;;;;19.35;13.57;;;;;;;16.35;100.00;101500.31;5048020;28;20054;-74
2022/06/26 05:11:59;;;;;;;15.88;13.23;;;;;;;16.39;100.00;101503.28;5065384;28;20055;-75
2022/06/26 05:14:25;;;;;;;18.48;14.25;;;;;;;16.63;100.00;101498.38;5044610;28;20252;-73
2022/06/26 05:16:50;;;;;;;14.98;12.52;;;;;;;16.71;100.00;101494.09;5062633;28;20053;-73
2022/06/26 05:19:17;;;;;;;17.10;12.63;;;;;;;16.73;100.00;101500.94;5063875;28;20343;-74
2022/06/26 05:21:43;;;;;;;18.80;14.90;;;;;;;16.92;100.00;101491.72;5047469;28;20035;-74
2022/06/26 05:24:09;;;;;;;18.33;14.80;;;;;;;17.13;100.00;101492.09;5082197;28;20201;-75
2022/06/26 05:26:34;;;;;;;17.35;12.50;;;;;;;17.05;100.00;101501.16;5064422;28;20435;-75
2022/06/26 05:29:04;;;;;;;14.70;12.23;;;;;;;16.83;100.00;101494.38;5064742;28;20161;-74
2022/06/26 05:31:34;;;;;;;14.57;11.57;;;;;;;16.78;100.00;101486.19;5063079;28;20119;-75
2022/06/26 05:34:00;;;;;;;18.35;11.35;;;;;;;16.97;100.00;101488.03;5064796;28;20055;-75
2022/06/26 05:36:27;;;;;;;15.90;10.70;;;;;;;16.93;100.00;101481.47;5081597;28;20071;-73
2022/06/26 05:38:53;;;;;;;14.90;11.10;;;;;;;16.98;100.00;101473.88;5033057;28;20495;-74
2022/06/26 05:41:20;;;;;;;14.23;9.90;;;;;;;17.02;100.00;101474.06;5064476;28;20040;-75
2022/06/26 05:43:45;;;;;;;12.65;9.50;;;;;;;17.14;100.00;101484.63;5049505;28;20024;-74
2022/06/26 05:46:11;;;;;;;15.20;10.05;;;;;;;17.24;100.00;101487.16;5062820;28;20507;-75
2022/06/26 05:48:37;;;;;;;13.75;9.75;;;;;;;17.20;100.00;101486.13;5062352;28;20086;-74
2022/06/26 05:51:03;;;;;;;13.10;9.45;;;;;;;17.29;100.00;101489.00;5033505;28;20031;-73
2022/06/26 05:53:28;;;;;;;11.80;8.98;;;;;;;17.11;100.00;101496.34;5082666;28;20461;-73
2022/06/26 05:55:54;;;;;;;11.23;9.40;;;;;;;17.28;100.00;101499.25;5064933;28;20044;-73
2022/06/26 05:58:20;;;;;;;11.65;9.10;;;;;;;17.25;100.00;101497.13;5047587;28;20047;-74
2022/06/26 06:00:46;;;;;;;11.70;9.25;;;;;;;17.08;100.00;101501.34;5045717;28;20519;-74
2022/06/26 06:03:11;;;;;;;12.25;8.73;;;;;;;17.26;100.00;101505.09;5046401;28;20485;-74
2022/06/26 06:05:40;;;;;;;12.38;8.45;;;;;;;17.13;100.00;101511.50;5081742;28;20587;-73
2022/06/26 06:08:05;;;;;;;10.60;8.02;;;;;;;17.30;100.00;101510.88;5064516;28;20036;-74
2022/06/26 06:10:34;;;;;;;8.95;7.75;;;;;;;17.18;100.00;101511.38;5080840;28;20038;-73
2022/06/26 06:13:01;;;;;;;10.75;8.30;;;;;;;17.24;100.00;101523.19;5048419;28;20032;-73
2022/06/26 06:15:26;;;;;;;9.57;7.75;;;;;;;17.47;100.00;101514.94;5043381;28;20042;-74
2022/06/26 06:17:51;;;;;;;10.23;8.30;;;;;;;17.40;100.00;101513.41;5079401;28;20072;-74
2022/06/26 06:20:26;;;;;;;11.40;8.43;;;;;;;17.55;100.00;101508.63;5062929;28;20321;-72
2022/06/26 06:22:54;;;;;;;10.52;8.10;;;;;;;17.58;100.00;101516.34;5063828;28;20547;-72
2022/06/26 06:25:24;;;;;;;9.73;7.75;;;;;;;17.65;100.00;101513.94;5081614;28;20133;-73
2022/06/26 06:27:50;;;;;;;13.30;7.65;;;;;;;17.81;100.00;101506.06;5047589;28;20039;-72
2022/06/26 06:30:17;;;;;;;12.15;8.80;;;;;;;17.87;100.00;101510.38;5061341;28;20027;-73
2022/06/26 06:32:42;;;;;;;9.40;7.93;;;;;;;17.75;100.00;101518.41;5044660;28;20039;-73
2022/06/26 06:35:13;;;;;;;11.30;8.15;;;;;;;17.94;100.00;101527.41;5047917;28;20028;-73
2022/06/26 06:37:39;;;;;;;9.70;8.05;;;;;;;18.04;100.00;101537.44;5081180;28;20031;-72
2022/06/26 06:40:06;;;;;;;11.05;8.55;;;;;;;18.21;100.00;101539.47;5083336;28;20039;-74
2022/06/26 06:42:31;;;;;;;14.27;8.23;;;;;;;18.07;100.00;101547.06;5045965;28;20023;-73
2022/06/26 06:44:56;;;;;;;11.73;8.77;;;;;;;17.92;100.00;101560.19;5081587;28;20658;-73
2022/06/26 06:47:31;;;;;;;11.43;9.18;;;;;;;18.05;100.00;101561.25;5059755;28;20114;-73
2022/06/26 06:49:57;;;;;;;10.63;9.50;;;;;;;18.69;100.00;101562.91;5031545;28;20581;-72
2022/06/26 06:52:31;;;;;;;13.48;10.40;;;;;;;18.82;100.00;101570.31;5064653;28;20064;-73
2022/06/26 06:54:57;;;;;;;12.60;10.48;;;;;;;18.91;100.00;101579.56;5064352;28;20075;-73
2022/06/26 06:57:26;;;;;;;11.90;10.52;;;;;;;19.08;100.00;101558.53;5051493;28;20463;-72
2022/06/26 06:59:51;;;;;;;10.57;9.50;;;;;;;18.63;100.00;101567.00;5067037;28;20028;-73
2022/06/26 07:02:17;;;;;;;9.75;8.82;;;;;;;18.94;100.00;101569.78;5083670;28;20470;-73
2022/06/26 07:04:42;;;;;;;13.50;10.52;;;;;;;18.58;100.00;101581.84;5033102;28;20078;-74
2022/06/26 07:07:07;;;;;;;11.02;9.93;;;;;;;18.29;100.00;101580.34;5034912;28;20435;-72
2022/06/26 07:09:33;;;;;;;11.57;9.48;;;;;;;18.49;100.00;101592.06;5050054;28;20032;-73
2022/06/26 07:11:58;;;;;;;11.38;9.23;;;;;;;18.52;100.00;101583.09;5050707;28;20036;-73
2022/06/26 07:14:27;;;;;;;10.73;9.57;;;;;;;18.78;100.00;101582.44;5066420;28;20055;-72
2022/06/26 07:16:53;;;;;;;11.18;9.18;;;;;;;18.60;100.00;101581.53;5047405;28;20312;-73
2022/06/26 07:19:18;;;;;;;11.45;10.18;;;;;;;19.04;100.00;101575.03;5069311;28;20027;-73
2022/06/26 07:21:44;;;;;;;12.95;9.73;;;;;;;18.99;100.00;101579.91;5067895;28;20403;-73
2022/06/26 07:24:11;;;;;;;11.38;9.30;;;;;;;19.00;100.00;101578.78;5052255;28;20446;-73
2022/06/26 07:26:37;;;;;;;9.77;8.52;;;;;;;18.95;100.00;101582.50;5050406;28;20119;-74
2022/06/26 07:29:04;;;;;;;8.82;7.93;;;;;;;19.13;100.00;101566.72;5066083;28;20031;-73
2022/06/26 07:31:37;;;;;;;10.07;8.50;;;;;;;19.26;100.00;101576.06;5047255;28;20145;-73
2022/06/26 07:34:18;;;;;;;9.70;8.57;;;;;;;19.33;100.00;101576.41;5067379;28;20031;-74
2022/06/26 07:36:48;;;;;;;10.48;8.75;;;;;;;19.53;100.00;101579.69;5050898;28;20047;-74
2022/06/26 07:39:17;;;;;;;12.68;9.40;;;;;;;19.83;100.00;101584.34;5086678;28;20382;-73
2022/06/26 07:41:44;;;;;;;9.43;8.60;;;;;;;19.86;100.00;101587.59;5065903;28;20074;-73
2022/06/26 07:44:09;;;;;;;8.50;7.68;;;;;;;19.60;100.00;101588.41;5064942;28;20023;-74
2022/06/26 07:46:36;;;;;;;7.60;6.45;;;;;;;19.38;100.00;101581.81;5081825;28;20050;-74
2022/06/26 07:49:03;;;;;;;7.30;6.70;;;;;;;19.35;100.00;101592.75;5050321;28;20069;-74
2022/06/26 07:51:31;;;;;;;10.73;7.85;;;;;;;19.77;100.00;101593.19;5066984;28;20106;-73
2022/06/26 07:53:56;;;;;;;8.82;7.00;;;;;;;19.77;100.00;101591.22;5049180;28;20032;-73
2022/06/26 07:56:25;;;;;;;6.75;6.15;;;;;;;19.83;100.00;101587.13;5084027;28;20130;-72
2022/06/26 07:58:51;;;;;;;8.20;6.70;;;;;;;19.68;100.00;101587.59;5065708;28;20558;-72
2022/06/26 08:01:16;;;;;;;8.43;7.07;;;;;;;19.03;100.00;101592.84;5043713;28;20029;-74
2022/06/26 08:03:41;;;;;;;7.68;6.93;;;;;;;19.49;100.00;101584.28;5048267;28;20469;-74
2022/06/26 08:06:07;;;;;;;9.88;7.40;;;;;;;20.15;100.00;101584.16;5050404;28;20027;-74
2022/06/26 08:08:35;;;;;;;8.13;7.40;;;;;;;20.33;100.00;101584.94;5065161;28;20088;-74
2022/06/26 08:11:01;;;;;;;8.52;7.68;;;;;;;20.60;100.00;101591.28;5068563;28;20035;-73
2022/06/26 08:13:26;;;;;;;9.00;7.13;;;;;;;20.92;100.00;101596.28;5067288;28;20371;-74
2022/06/26 08:15:52;;;;;;;7.13;6.43;;;;;;;21.13;100.00;101601.09;5045733;28;20153;-74
2022/06/26 08:18:17;;;;;;;6.60;6.03;;;;;;;21.33;100.00;101610.66;5048693;28;20024;-74
2022/06/26 08:20:42;;;;;;;7.10;6.40;;;;;;;21.42;100.00;101605.03;5066942;28;20075;-74
2022/06/26 08:23:08;;;;;;;6.72;6.13;;;;;;;21.51;100.00;101599.41;5068668;28;20039;-74
2022/06/26 08:25:37;;;;;;;6.93;5.50;;;;;;;21.07;100.00;101611.63;5086244;28;20103;-74
2022/06/26 08:28:03;;;;;;;6.03;4.68;;;;;;;21.11;100.00;101614.56;5069290;28;20036;-74
2022/06/26 08:30:28;;;;;;;4.72;4.28;;;;;;;21.41;100.00;101607.00;5049054;28;20465;-75
2022/06/26 08:32:57;;;;;;;5.60;4.22;;;;;;;21.73;100.00;101601.88;5066466;28;20040;-75
2022/06/26 08:35:23;;;;;;;6.28;3.95;;;;;;;21.28;100.00;101602.47;5067773;28;20362;-75
2022/06/26 08:37:48;;;;;;;5.50;3.92;;;;;;;21.47;100.00;101600.09;5085342;28;20447;-75
2022/06/26 08:40:14;;;;;;;5.85;3.97;;;;;;;21.82;100.00;101602.66;5067698;28;20032;-75
2022/06/26 08:42:41;;;;;;;4.78;3.80;;;;;;;21.75;100.00;101601.56;5050378;28;20028;-75
2022/06/26 08:45:17;;;;;;;4.80;3.80;;;;;;;22.29;100.00;101598.78;5066752;28;20024;-75
2022/06/26 08:47:48;;;;;;;4.78;4.10;;;;;;;22.62;100.00;101603.53;5049691;28;20028;-75
2022/06/26 08:50:14;;;;;;;7.07;4.25;;;;;;;22.75;100.00;101609.97;5068792;28;20121;-75
2022/06/26 08:52:43;;;;;;;7.72;3.70;;;;;;;22.31;100.00;101618.00;5066717;28;20495;-76
2022/06/26 08:55:09;;;;;;;6.07;3.92;;;;;;;22.20;100.00;101621.19;5084873;28;20047;-76
2022/06/26 08:57:34;;;;;;;6.78;4.40;;;;;;;22.13;100.00;101614.53;5067595;28;20028;-76
2022/06/26 09:00:00;;;;;;;5.63;4.07;;;;;;;22.33;100.00;101618.47;5035111;28;20141;-75
2022/06/26 09:02:26;;;;;;;3.90;3.50;;;;;;;22.14;100.00;101618.97;5081627;28;20032;-75
2022/06/26 09:04:52;;;;;;;6.18;4.20;;;;;;;22.29;100.00;101620.34;5083540;28;20028;-77
2022/06/26 09:07:18;;;;;;;6.07;3.60;;;;;;;21.78;100.00;101629.59;5066191;28;20367;-75
2022/06/26 09:09:44;;;;;;;7.10;3.53;;;;;;;22.23;100.00;101619.69;5066030;28;20496;-76
2022/06/26 09:12:09;;;;;;;5.57;3.75;;;;;;;22.15;100.00;101626.16;5048243;28;20157;-76
2022/06/26 09:14:35;;;;;;;5.00;3.63;;;;;;;22.18;100.00;101629.09;5049204;28;20043;-76
2022/06/26 09:17:01;;;;;;;4.65;4.15;;;;;;;22.07;100.00;101630.69;5062156;28;20551;-75
2022/06/26 09:19:33;;;;;;;5.85;4.32;;;;;;;21.72;100.00;101627.34;5065202;28;20028;-76
2022/06/26 09:22:18;;;;;;;5.13;4.05;;;;;;;21.20;100.00;101645.16;5081501;28;20130;-76
2022/06/26 09:24:55;;;;;;;6.13;4.10;;;;;;;21.08;100.00;101643.09;5063510;28;20040;-76
2022/06/26 09:27:21;;;;;;;6.35;3.65;;;;;;;20.66;100.00;101642.91;5083659;28;20016;-76
2022/06/26 09:29:55;;;;;;;4.18;2.80;;;;;;;21.95;100.00;101631.41;5081591;28;20424;-75
2022/06/26 09:32:22;;;;;;;4.95;3.35;;;;;;;22.33;100.00;101640.81;5060766;28;20425;-75
2022/06/26 09:34:51;;;;;;;6.72;3.40;;;;;;;22.53;100.00;101639.97;5064893;28;20498;-74
2022/06/26 09:37:18;;;;;;;4.43;2.95;;;;;;;22.14;100.00;101646.88;5084074;28;20024;-74
2022/06/26 09:39:44;;;;;;;6.82;3.13;;;;;;;22.78;100.00;101642.03;5065653;28;20016;-75
2022/06/26 09:42:18;;;;;;;5.50;2.80;;;;;;;22.41;100.00;101648.28;5066616;28;20028;-74
2022/06/26 09:44:45;;;;;;;4.75;3.20;;;;;;;22.77;100.00;101649.56;5081541;28;20486;-75
2022/06/26 09:47:26;;;;;;;4.88;2.50;;;;;;;22.75;100.00;101651.91;5060862;28;20028;-75
2022/06/26 09:49:54;;;;;;;4.95;1.98;;;;;;;23.34;100.00;101636.72;5083219;28;20028;-75
2022/06/26 09:52:22;;;;;;;5.45;1.80;;;;;;;23.68;100.00;101645.78;5066356;28;20089;-74
2022/06/26 09:54:48;;;;;;;3.67;2.20;;;;;;;23.25;100.00;101647.19;5065891;28;20067;-77
2022/06/26 09:57:14;;;;;;;4.70;2.10;;;;;;;22.85;100.00;101661.81;5084400;28;20050;-75
2022/06/26 09:59:49;;;;;;;4.07;2.00;;;;;;;23.00;100.00;101654.72;5047903;28;20119;-76
2022/06/26 10:07:50;;;;;;;1.88;1.77;;;;;;;23.26;100.00;101665.63;5062822;28;20047;-75
2022/06/26 10:10:19;;;;;;;3.83;1.83;;;;;;;23.51;100.00;101662.81;5063696;28;20032;-76
2022/06/26 10:12:49;;;;;;;4.65;1.92;;;;;;;23.13;100.00;101660.00;5045633;28;20500;-76
2022/06/26 10:15:20;;;;;;;4.90;1.95;;;;;;;23.08;100.00;101668.63;5041792;28;20410;-77
2022/06/26 10:18:06;;;;;;;4.32;2.05;;;;;;;23.05;100.00;101672.09;5042481;28;20032;-76
2022/06/26 10:20:34;;;;;;;4.65;1.92;;;;;;;22.87;100.00;101668.69;5063076;28;20056;-75
2022/06/26 10:22:59;;;;;;;2.60;1.70;;;;;;;23.46;100.00;101661.06;5043775;28;20033;-76
2022/06/26 10:25:30;;;;;;;4.07;1.92;;;;;;;23.30;100.00;101659.00;5063674;28;20029;-75
2022/06/26 10:27:57;;;;;;;5.55;2.00;;;;;;;23.31;100.00;101659.78;5061912;28;20382;-75
2022/06/26 10:30:25;;;;;;;3.35;1.80;;;;;;;22.85;100.00;101665.41;5038784;28;20173;-75
2022/06/26 10:33:25;;;;;;;4.05;1.80;;;;;;;22.60;100.00;101663.75;5059930;28;20025;-77
2022/06/26 10:35:51;;;;;;;4.85;1.90;;;;;;;23.30;100.00;101655.34;4945187;28;20031;-75
2022/06/26 10:38:22;;;;;;;4.30;1.92;;;;;;;22.61;100.00;101671.75;5025499;28;20040;-76
2022/06/26 10:44:05;;;;;;;3.65;2.25;;;;;;;22.55;100.00;101671.16;5081301;28;20402;-76
2022/06/26 10:47:00;;;;;;;4.35;2.22;;;;;;;22.25;100.00;101672.41;5060806;28;20050;-77
2022/06/26 10:49:25;;;;;;;4.28;2.13;;;;;;;23.36;100.00;101669.94;5060154;28;20396;-77
2022/06/26 10:51:51;;;;;;;2.25;1.85;;;;;;;23.37;100.00;101668.78;5079624;28;20458;-77
2022/06/26 10:54:27;;;;;;;3.38;2.03;;;;;;;22.85;100.00;101668.22;5047540;28;20547;-77
2022/06/26 10:57:04;;;;;;;4.22;1.95;;;;;;;22.49;100.00;101666.16;5076397;28;20474;-77
2022/06/26 10:59:30;;;;;;;4.18;2.47;;;;;;;22.19;100.00;101671.81;5061316;28;20122;-77
2022/06/26 11:01:55;;;;;;;7.05;2.50;;;;;;;22.76;100.00;101661.94;5075866;28;20465;-75
2022/06/26 11:04:21;;;;;;;3.83;2.40;;;;;;;23.01;100.00;101665.56;5029811;28;20138;-76
2022/06/26 11:06:55;;;;;;;5.32;2.53;;;;;;;22.71;100.00;101668.56;5046104;28;20028;-76
2022/06/26 11:09:20;;;;;;;4.95;2.50;;;;;;;23.21;100.00;101675.06;5061845;28;20150;-76
2022/06/26 11:11:57;;;;;;;3.05;2.33;;;;;;;22.96;100.00;101671.41;5064379;28;20095;-76
2022/06/26 11:14:23;;;;;;;5.03;2.17;;;;;;;23.09;100.00;101675.88;5078931;28;20103;-79
2022/06/26 11:16:56;;;;;;;2.95;2.20;;;;;;;23.07;100.00;101669.81;5059628;28;20135;-77
2022/06/26 11:19:24;;;;;;;;;;;;;;;22.26;100.00;101668.47;5045903;28;20032;-77